createdAt,value
2018-10-12T00:00:43.896Z,35.80
2018-10-12T00:03:11.976Z,35.50
2018-10-12T00:05:39.458Z,35.27
2018-10-12T00:08:06.844Z,35.23
2018-10-12T00:10:34.213Z,38.30
2018-10-12T00:13:01.585Z,39.17
2018-10-12T00:15:28.953Z,39.03
2018-10-12T00:17:56.825Z,40.30
2018-10-12T00:20:24.193Z,38.63
2018-10-12T00:22:51.557Z,40.97
2018-10-12T00:25:18.927Z,39.13
2018-10-12T00:27:46.397Z,41.00
2018-10-12T00:30:13.771Z,38.97
2018-10-12T00:32:41.253Z,34.80
2018-10-12T00:35:08.644Z,33.03
2018-10-12T00:37:35.989Z,35.00
2018-10-12T00:40:03.436Z,47.60
2018-10-12T00:42:30.829Z,43.17
2018-10-12T00:44:58.201Z,44.53
2018-10-12T00:47:25.797Z,42.93
2018-10-12T00:49:53.250Z,42.23
2018-10-12T00:52:20.587Z,43.83
2018-10-12T00:54:47.970Z,40.83
2018-10-12T00:57:15.369Z,45.03
2018-10-12T00:59:42.869Z,42.37
2018-10-12T01:02:10.333Z,45.03
2018-10-12T01:04:37.789Z,44.43
2018-10-12T01:07:05.165Z,43.43
2018-10-12T01:09:32.585Z,44.83
2018-10-12T01:12:05.606Z,45.17
2018-10-12T01:14:33.009Z,45.83
2018-10-12T01:17:00.471Z,45.47
2018-10-12T01:19:28.117Z,47.03
2018-10-12T01:21:55.489Z,47.00
2018-10-12T01:24:22.944Z,47.23
2018-10-12T01:26:50.345Z,47.40
2018-10-12T01:29:17.745Z,46.57
2018-10-12T01:31:45.105Z,46.77
2018-10-12T01:34:12.505Z,46.97
2018-10-12T01:36:39.865Z,47.80
2018-10-12T01:39:07.256Z,46.83
2018-10-12T01:41:34.670Z,45.30
2018-10-12T01:44:02.086Z,51.07
2018-10-12T01:46:29.521Z,57.43
2018-10-12T01:48:56.908Z,56.87
2018-10-12T01:51:24.277Z,64.10
2018-10-12T01:53:51.664Z,54.13
2018-10-12T01:56:19.116Z,60.03
2018-10-12T01:58:46.518Z,57.73
2018-10-12T02:01:13.893Z,53.30
2018-10-12T02:03:41.305Z,61.00
2018-10-12T02:06:08.661Z,52.70
2018-10-12T02:08:36.040Z,51.63
2018-10-12T02:11:03.512Z,48.73
2018-10-12T02:13:31.180Z,49.17
2018-10-12T02:15:58.558Z,47.67
2018-10-12T02:18:26.096Z,49.67
2018-10-12T02:20:53.449Z,45.70
2018-10-12T02:23:20.809Z,48.33
2018-10-12T02:25:48.184Z,49.73
2018-10-12T02:28:15.557Z,53.17
2018-10-12T02:30:42.919Z,66.40
2018-10-12T02:33:10.321Z,76.20
2018-10-12T02:35:37.681Z,54.43
2018-10-12T02:38:05.253Z,53.27
2018-10-12T02:40:32.641Z,53.27
2018-10-12T02:43:00.022Z,63.27
2018-10-12T02:45:27.380Z,55.20
2018-10-12T02:47:54.777Z,55.87
2018-10-12T02:50:22.129Z,59.53
2018-10-12T02:52:49.484Z,53.80
2018-10-12T02:55:16.864Z,55.73
2018-10-12T02:57:44.353Z,53.67
2018-10-12T03:00:11.722Z,57.43
2018-10-12T03:02:39.136Z,54.90
2018-10-12T03:05:06.734Z,57.17
2018-10-12T03:07:34.200Z,60.53
2018-10-12T03:10:01.604Z,57.70
2018-10-12T03:12:28.977Z,56.87
2018-10-12T03:14:56.472Z,59.53
2018-10-12T03:17:23.953Z,61.20
2018-10-12T03:19:51.320Z,57.93
2018-10-12T03:22:18.674Z,61.30
2018-10-12T03:24:46.097Z,61.70
2018-10-12T03:27:13.453Z,63.57
2018-10-12T03:29:40.885Z,63.57
2018-10-12T03:32:08.444Z,61.07
2018-10-12T03:34:36.039Z,60.53
2018-10-12T03:37:03.461Z,60.20
2018-10-12T03:39:30.857Z,58.93
2018-10-12T03:41:58.313Z,58.50
2018-10-12T03:44:25.713Z,58.43
2018-10-12T03:46:53.127Z,57.20
2018-10-12T03:49:20.538Z,58.93
2018-10-12T03:51:48.005Z,58.07
2018-10-12T03:54:15.366Z,58.80
2018-10-12T03:56:42.863Z,55.70
2018-10-12T03:59:10.216Z,49.57
2018-10-12T04:01:37.602Z,47.87
2018-10-12T04:04:06.036Z,43.77
2018-10-12T04:06:33.525Z,42.50
2018-10-12T04:09:00.938Z,42.23
2018-10-12T04:11:28.402Z,45.73
2018-10-12T04:13:55.740Z,43.77
2018-10-12T04:16:23.345Z,43.27
2018-10-12T04:18:50.733Z,47.63
2018-10-12T04:21:19.130Z,49.10
2018-10-12T04:23:46.545Z,46.83
2018-10-12T04:26:13.914Z,51.70
2018-10-12T04:28:41.269Z,50.70
2018-10-12T04:31:08.657Z,52.60
2018-10-12T04:33:36.025Z,49.97
2018-10-12T04:36:03.372Z,48.23
2018-10-12T04:38:36.310Z,51.33
2018-10-12T04:41:06.182Z,51.60
2018-10-12T04:43:33.836Z,56.13
2018-10-12T04:46:02.105Z,60.80
2018-10-12T04:48:29.725Z,62.80
2018-10-12T04:50:57.305Z,60.53
2018-10-12T04:53:25.015Z,61.57
2018-10-12T04:55:52.874Z,61.73
2018-10-12T04:58:20.366Z,61.07
2018-10-12T05:00:47.887Z,60.17
2018-10-12T05:03:15.357Z,57.83
2018-10-12T05:05:43.165Z,57.90
2018-10-12T05:08:10.561Z,55.33
2018-10-12T05:10:37.933Z,60.57
2018-10-12T05:13:05.437Z,55.50
2018-10-12T05:15:32.830Z,58.00
2018-10-12T05:18:00.377Z,56.73
2018-10-12T05:20:27.741Z,59.67
2018-10-12T05:22:55.133Z,59.03
2018-10-12T05:25:22.620Z,57.83
2018-10-12T05:27:49.973Z,56.83
2018-10-12T05:30:17.602Z,56.17
2018-10-12T05:32:45.233Z,54.70
2018-10-12T05:35:12.670Z,54.07
2018-10-12T05:37:40.053Z,52.70
2018-10-12T05:40:07.465Z,56.00
2018-10-12T05:42:34.920Z,55.00
2018-10-12T05:45:02.442Z,51.30
2018-10-12T05:47:30.181Z,51.17
2018-10-12T05:49:59.478Z,52.80
2018-10-12T05:52:27.360Z,50.77
2018-10-12T05:54:54.777Z,52.73
2018-10-12T05:57:22.360Z,51.33
2018-10-12T05:59:49.936Z,51.87
2018-10-12T06:02:17.340Z,50.20
2018-10-12T06:04:44.940Z,48.40
2018-10-12T06:07:12.384Z,49.27
2018-10-12T06:09:39.891Z,48.53
2018-10-12T06:12:07.287Z,52.30
2018-10-12T06:14:34.950Z,48.43
2018-10-12T06:17:02.319Z,46.53
2018-10-12T06:19:29.781Z,46.17
2018-10-12T06:21:57.174Z,44.73
2018-10-12T06:24:24.556Z,43.93
2018-10-12T06:26:52.013Z,44.07
2018-10-12T06:29:19.552Z,41.73
2018-10-12T06:31:46.925Z,43.80
2018-10-12T06:34:14.297Z,41.60
2018-10-12T06:36:41.682Z,39.70
2018-10-12T06:39:09.089Z,39.50
2018-10-12T06:41:36.546Z,40.23
2018-10-12T06:44:04.097Z,38.47
2018-10-12T06:46:31.503Z,39.60
2018-10-12T06:48:58.888Z,37.73
2018-10-12T06:51:26.269Z,36.53
2018-10-12T06:53:53.632Z,37.07
2018-10-12T06:56:20.996Z,34.07
2018-10-12T06:58:48.381Z,34.17
2018-10-12T07:01:16.006Z,32.03
2018-10-12T07:03:43.955Z,32.27
2018-10-12T07:06:11.134Z,33.30
2018-10-12T07:08:38.624Z,30.73
2018-10-12T07:11:06.050Z,31.57
2018-10-12T07:13:33.548Z,31.73
2018-10-12T07:16:00.853Z,32.13
2018-10-12T07:18:28.202Z,29.73
2018-10-12T07:20:55.705Z,29.77
2018-10-12T07:23:23.077Z,28.00
2018-10-12T07:25:50.452Z,28.90
2018-10-12T07:28:17.866Z,29.77
2018-10-12T07:30:45.381Z,28.57
2018-10-12T07:33:12.724Z,27.30
2018-10-12T07:35:40.116Z,27.73
2018-10-12T07:38:07.517Z,27.93
2018-10-12T07:40:34.897Z,25.33
2018-10-12T07:43:02.299Z,26.83
2018-10-12T07:45:29.754Z,25.43
2018-10-12T07:47:57.149Z,25.23
2018-10-12T07:50:24.515Z,24.80
2018-10-12T07:52:51.994Z,25.17
2018-10-12T07:55:19.368Z,26.43
2018-10-12T07:57:46.909Z,24.30
2018-10-12T08:00:14.369Z,25.83
2018-10-12T08:02:41.782Z,25.03
2018-10-12T08:05:09.272Z,23.13
2018-10-12T08:07:36.626Z,24.13
2018-10-12T08:10:04.177Z,23.10
2018-10-12T08:12:31.757Z,23.23
2018-10-12T08:14:59.125Z,22.50
2018-10-12T08:17:26.564Z,23.93
2018-10-12T08:19:53.949Z,22.07
2018-10-12T08:22:21.420Z,22.13
2018-10-12T08:24:48.915Z,21.87
2018-10-12T08:27:16.281Z,21.60
2018-10-12T08:29:43.773Z,22.97
2018-10-12T08:32:11.593Z,24.53
2018-10-12T08:34:39.013Z,22.47
2018-10-12T08:37:06.593Z,21.80
2018-10-12T08:39:33.936Z,21.43
2018-10-12T08:42:01.309Z,22.50
2018-10-12T08:44:28.692Z,21.40
2018-10-12T08:46:56.065Z,22.53
2018-10-12T08:49:23.480Z,22.67
2018-10-12T08:51:50.833Z,22.10
2018-10-12T08:54:18.219Z,21.10
2018-10-12T08:56:45.666Z,21.23
2018-10-12T08:59:13.047Z,20.73
2018-10-12T09:01:40.399Z,21.53
2018-10-12T09:04:07.773Z,22.53
2018-10-12T09:06:35.121Z,21.40
2018-10-12T09:09:02.937Z,21.77
2018-10-12T09:11:30.544Z,20.47
2018-10-12T09:13:58.053Z,20.57
2018-10-12T09:16:25.467Z,20.30
2018-10-12T09:18:52.920Z,20.47
2018-10-12T09:21:20.428Z,20.60
2018-10-12T09:23:47.842Z,20.07
2018-10-12T09:26:15.485Z,20.47
2018-10-12T09:28:42.849Z,20.73
2018-10-12T09:31:10.325Z,21.07
2018-10-12T09:33:37.692Z,20.37
2018-10-12T09:36:05.040Z,18.73
2018-10-12T09:38:32.407Z,20.70
2018-10-12T09:40:59.782Z,19.40
2018-10-12T09:43:27.157Z,20.47
2018-10-12T09:45:54.634Z,20.90
2018-10-12T09:48:22.008Z,18.93
2018-10-12T09:50:49.378Z,18.20
2018-10-12T09:53:16.872Z,20.53
2018-10-12T09:55:44.253Z,19.60
2018-10-12T09:58:11.605Z,20.17
2018-10-12T10:00:44.341Z,22.37
2018-10-12T10:03:17.137Z,19.37
2018-10-12T10:05:44.511Z,20.07
2018-10-12T10:08:11.965Z,18.50
2018-10-12T10:10:39.241Z,18.93
2018-10-12T10:13:06.640Z,20.13
2018-10-12T10:15:34.056Z,20.87
2018-10-12T10:18:01.807Z,20.27
2018-10-12T10:20:29.040Z,20.87
2018-10-12T10:22:56.500Z,19.70
2018-10-12T10:25:24.158Z,21.67
2018-10-12T10:27:51.489Z,21.60
2018-10-12T10:30:18.844Z,20.43
2018-10-12T10:32:46.210Z,20.43
2018-10-12T10:35:13.618Z,19.77
2018-10-12T10:37:40.998Z,19.33
2018-10-12T10:40:08.464Z,18.90
2018-10-12T10:42:35.953Z,19.33
2018-10-12T10:45:03.425Z,19.47
2018-10-12T10:47:30.838Z,18.12
2018-10-12T10:49:58.461Z,19.53
2018-10-12T10:52:25.941Z,19.10
2018-10-12T10:54:53.334Z,19.83
2018-10-12T10:57:20.720Z,19.70
2018-10-12T10:59:48.068Z,20.23
2018-10-12T11:02:15.486Z,19.37
2018-10-12T11:04:42.895Z,19.10
2018-10-12T11:07:10.281Z,19.20
2018-10-12T11:09:37.645Z,18.42
2018-10-12T11:12:05.104Z,19.50
2018-10-12T11:14:32.567Z,19.77
2018-10-12T11:16:59.933Z,19.25
2018-10-12T11:19:27.399Z,17.87
2018-10-12T11:21:54.861Z,18.35
2018-10-12T11:24:22.278Z,17.48
2018-10-12T11:26:49.735Z,17.23
2018-10-12T11:29:18.300Z,17.12
2018-10-12T11:31:45.670Z,17.67
2018-10-12T11:34:14.594Z,17.32
2018-10-12T11:36:42.010Z,17.65
2018-10-12T11:39:10.098Z,16.77
2018-10-12T11:41:37.473Z,17.48
2018-10-12T11:44:04.849Z,15.98
2018-10-12T11:46:32.213Z,16.07
2018-10-12T11:48:59.601Z,15.58
2018-10-12T11:51:26.964Z,15.98
2018-10-12T11:53:54.488Z,15.80
2018-10-12T11:56:21.893Z,15.85
2018-10-12T11:58:49.326Z,54.75
2018-10-12T12:01:16.741Z,17.17
2018-10-12T12:03:44.117Z,14.63
2018-10-12T12:06:11.497Z,14.18
2018-10-12T12:08:38.872Z,15.30
2018-10-12T12:11:06.571Z,14.45
2018-10-12T12:13:33.965Z,14.55
2018-10-12T12:16:01.349Z,13.45
2018-10-12T12:18:28.802Z,14.10
2018-10-12T12:20:56.176Z,13.85
2018-10-12T12:23:23.761Z,14.35
2018-10-12T12:25:51.243Z,14.10
2018-10-12T12:28:18.645Z,13.20
2018-10-12T12:30:46.117Z,12.73
2018-10-12T12:33:13.570Z,14.35
2018-10-12T12:35:41.256Z,12.53
2018-10-12T12:38:08.337Z,12.98
2018-10-12T12:40:35.718Z,13.62
2018-10-12T12:43:03.146Z,13.13
2018-10-12T12:45:30.504Z,12.98
2018-10-12T12:47:57.956Z,12.07
2018-10-12T12:50:25.290Z,12.60
2018-10-12T12:52:52.661Z,13.48
2018-10-12T12:55:20.080Z,12.63
2018-10-12T12:57:47.533Z,13.60
2018-10-12T13:00:14.974Z,13.88
2018-10-12T13:02:42.622Z,12.68
2018-10-12T13:05:10.000Z,13.55
2018-10-12T13:07:37.372Z,12.45
2018-10-12T13:10:04.768Z,13.03
2018-10-12T13:12:32.217Z,12.43
2018-10-12T13:14:59.576Z,13.10
2018-10-12T13:17:27.096Z,12.82
2018-10-12T13:19:54.442Z,14.18
2018-10-12T13:22:22.066Z,13.85
2018-10-12T13:24:49.529Z,12.30
2018-10-12T13:27:16.856Z,12.65
2018-10-12T13:29:44.228Z,13.32
2018-10-12T13:32:11.650Z,13.22
2018-10-12T13:34:39.045Z,13.88
2018-10-12T13:37:06.453Z,13.45
2018-10-12T13:39:33.853Z,12.85
2018-10-12T13:42:01.212Z,12.82
2018-10-12T13:44:28.613Z,12.98
2018-10-12T13:46:56.162Z,13.43
2018-10-12T13:49:23.562Z,14.50
2018-10-12T13:51:50.931Z,14.07
2018-10-12T13:54:18.665Z,14.05
2018-10-12T13:56:46.116Z,14.53
2018-10-12T13:59:13.489Z,15.63
2018-10-12T14:01:40.885Z,16.25
2018-10-12T14:04:08.272Z,15.18
2018-10-12T14:06:35.749Z,14.75
2018-10-12T14:09:03.302Z,14.95
2018-10-12T14:11:30.687Z,15.90
2018-10-12T14:13:58.061Z,15.05
2018-10-12T14:16:25.626Z,15.58
2018-10-12T14:18:53.256Z,15.68
2018-10-12T14:21:20.435Z,15.28
2018-10-12T14:23:47.837Z,16.90
2018-10-12T14:26:15.207Z,15.93
2018-10-12T14:28:42.585Z,15.58
2018-10-12T14:31:10.194Z,15.15
2018-10-12T14:33:37.542Z,15.38
2018-10-12T14:36:04.957Z,15.95
2018-10-12T14:38:32.357Z,14.23
2018-10-12T14:40:59.833Z,15.25
2018-10-12T14:43:27.208Z,15.45
2018-10-12T14:45:54.636Z,14.85
2018-10-12T14:48:22.001Z,15.18
2018-10-12T14:50:49.521Z,15.05
2018-10-12T14:53:16.992Z,15.18
2018-10-12T14:55:44.318Z,14.53
2018-10-12T14:58:11.756Z,14.00
2018-10-12T15:00:39.172Z,15.25
2018-10-12T15:03:06.729Z,16.55
2018-10-12T15:05:34.225Z,18.95
2018-10-12T15:08:01.606Z,15.53
2018-10-12T15:10:29.253Z,16.63
2018-10-12T15:12:56.608Z,16.43
2018-10-12T15:15:26.253Z,17.10
2018-10-12T15:17:54.604Z,16.37
2018-10-12T15:20:22.353Z,15.97
2018-10-12T15:22:49.857Z,16.33
2018-10-12T15:25:17.273Z,15.53
2018-10-12T15:27:44.933Z,15.90
2018-10-12T15:30:13.037Z,16.57
2018-10-12T15:32:40.560Z,15.50
2018-10-12T15:35:08.223Z,15.90
2018-10-12T15:37:35.625Z,17.87
2018-10-12T15:40:03.053Z,16.50
2018-10-12T15:42:30.590Z,16.80
2018-10-12T15:44:58.100Z,17.27
2018-10-12T15:47:25.480Z,17.03
2018-10-12T15:49:53.174Z,17.73
2018-10-12T15:52:20.645Z,17.43
2018-10-12T15:54:48.357Z,17.53
2018-10-12T15:57:21.165Z,16.93
2018-10-12T15:59:49.814Z,15.87
2018-10-12T16:02:17.317Z,16.83
2018-10-12T16:04:45.078Z,16.87
2018-10-12T16:07:13.165Z,17.50
2018-10-12T16:09:40.595Z,17.70
2018-10-12T16:12:08.064Z,17.13
2018-10-12T16:14:35.577Z,19.03
2018-10-12T16:17:02.957Z,18.50
2018-10-12T16:19:30.413Z,19.63
2018-10-12T16:21:57.777Z,20.17
2018-10-12T16:24:25.145Z,20.13
2018-10-12T16:26:52.730Z,21.03
2018-10-12T16:29:20.213Z,19.03
2018-10-12T16:31:47.690Z,18.83
2018-10-12T16:34:15.229Z,20.30
2018-10-12T16:36:42.660Z,19.77
2018-10-12T16:39:10.602Z,20.27
2018-10-12T16:41:38.401Z,20.73
2018-10-12T16:44:05.812Z,21.30
2018-10-12T16:46:33.353Z,21.23
2018-10-12T16:49:00.812Z,24.10
2018-10-12T16:51:28.469Z,23.47
2018-10-12T16:53:55.839Z,23.33
2018-10-12T16:56:23.221Z,24.53
2018-10-12T16:58:50.576Z,23.57
2018-10-12T17:01:17.928Z,24.03
2018-10-12T17:03:45.308Z,24.93
2018-10-12T17:06:12.721Z,23.17
2018-10-12T17:08:40.188Z,25.17
2018-10-12T17:11:07.685Z,25.13
2018-10-12T17:13:35.049Z,24.07
2018-10-12T17:16:02.443Z,26.13
2018-10-12T17:18:29.852Z,24.87
2018-10-12T17:20:57.413Z,23.83
2018-10-12T17:23:24.804Z,22.83
2018-10-12T17:25:52.193Z,24.07
2018-10-12T17:28:19.651Z,24.37
2018-10-12T17:30:47.266Z,23.77
2018-10-12T17:33:14.649Z,25.60
2018-10-12T17:35:42.040Z,25.67
2018-10-12T17:38:09.389Z,26.50
2018-10-12T17:40:36.908Z,25.73
2018-10-12T17:43:04.339Z,29.43
2018-10-12T17:45:31.741Z,57.70
2018-10-12T17:47:59.261Z,45.40
2018-10-12T17:50:26.704Z,41.57
2018-10-12T17:52:54.073Z,36.43
2018-10-12T17:55:21.686Z,39.83
2018-10-12T17:57:49.041Z,36.07
2018-10-12T18:00:16.444Z,37.70
2018-10-12T18:02:43.822Z,32.07
2018-10-12T18:05:11.178Z,31.10
2018-10-12T18:07:38.528Z,36.77
2018-10-12T18:10:06.692Z,42.90
2018-10-12T18:12:34.048Z,45.73
2018-10-12T18:15:01.485Z,41.33
2018-10-12T18:17:28.869Z,39.60
2018-10-12T18:19:56.226Z,40.67
2018-10-12T18:22:23.752Z,36.70
2018-10-12T18:24:51.179Z,39.30
2018-10-12T18:27:18.549Z,34.20
2018-10-12T18:29:46.046Z,35.43
2018-10-12T18:32:13.573Z,35.13
2018-10-12T18:34:40.921Z,34.97
2018-10-12T18:37:08.286Z,35.87
2018-10-12T18:39:35.697Z,34.93
2018-10-12T18:42:03.068Z,34.70
2018-10-12T18:44:30.416Z,33.27
2018-10-12T18:46:57.834Z,32.83
2018-10-12T18:49:25.186Z,28.53
2018-10-12T18:51:52.615Z,28.30
2018-10-12T18:54:20.218Z,27.27
2018-10-12T18:56:47.573Z,27.73
2018-10-12T18:59:15.193Z,28.40
2018-10-12T19:01:42.673Z,25.00
2018-10-12T19:04:10.142Z,26.67
2018-10-12T19:06:37.523Z,31.00
2018-10-12T19:09:06.310Z,29.87
2018-10-12T19:11:33.738Z,30.27
2018-10-12T19:14:01.210Z,28.43
2018-10-12T19:16:28.593Z,30.13
2018-10-12T19:18:55.953Z,39.40
2018-10-12T19:21:23.326Z,40.67
2018-10-12T19:23:50.940Z,37.63
2018-10-12T19:26:18.254Z,31.63
2018-10-12T19:28:45.970Z,30.50
2018-10-12T19:31:13.416Z,29.17
2018-10-12T19:33:40.958Z,32.60
2018-10-12T19:36:08.435Z,28.67
2018-10-12T19:38:36.186Z,27.77
2018-10-12T19:41:03.933Z,28.17
2018-10-12T19:43:31.293Z,27.63
2018-10-12T19:45:58.953Z,27.93
2018-10-12T19:48:26.605Z,25.90
2018-10-12T19:50:53.992Z,27.10
2018-10-12T19:53:21.496Z,28.43
2018-10-12T19:55:48.964Z,28.03
2018-10-12T19:58:16.434Z,27.20
2018-10-12T20:00:43.854Z,27.33
2018-10-12T20:03:11.398Z,28.43
2018-10-12T20:05:38.719Z,32.07
2018-10-12T20:08:06.297Z,30.87
2018-10-12T20:10:33.698Z,31.27
2018-10-12T20:13:01.190Z,28.17
2018-10-12T20:15:28.582Z,28.57
2018-10-12T20:17:56.088Z,28.07
2018-10-12T20:20:23.465Z,27.53
2018-10-12T20:22:51.008Z,28.57
2018-10-12T20:25:18.392Z,27.77
2018-10-12T20:27:45.769Z,28.17
2018-10-12T20:30:13.172Z,27.00
2018-10-12T20:32:40.638Z,28.30
2018-10-12T20:35:08.373Z,28.73
2018-10-12T20:37:36.040Z,28.47
2018-10-12T20:40:03.457Z,28.80
2018-10-12T20:42:30.797Z,25.80
2018-10-12T20:44:58.353Z,27.27
2018-10-12T20:47:25.701Z,27.83
2018-10-12T20:49:53.305Z,27.17
2018-10-12T20:52:20.937Z,29.97
2018-10-12T20:54:48.302Z,29.03
2018-10-12T20:57:15.801Z,28.17
2018-10-12T20:59:43.433Z,31.10
2018-10-12T21:02:10.875Z,29.30
2018-10-12T21:04:38.410Z,28.73
2018-10-12T21:07:05.960Z,28.83
2018-10-12T21:09:33.445Z,29.73
2018-10-12T21:12:00.945Z,31.13
2018-10-12T21:14:28.581Z,29.13
2018-10-12T21:16:55.995Z,29.87
2018-10-12T21:19:23.369Z,28.10
2018-10-12T21:21:50.857Z,29.00
2018-10-12T21:24:18.229Z,30.00
2018-10-12T21:26:45.595Z,29.67
2018-10-12T21:29:13.112Z,29.30
2018-10-12T21:31:40.464Z,27.70
2018-10-12T21:34:08.262Z,30.53
2018-10-12T21:36:35.777Z,30.43
2018-10-12T21:39:03.653Z,28.60
2018-10-12T21:41:30.997Z,30.90
2018-10-12T21:43:58.376Z,29.90
2018-10-12T21:46:25.745Z,29.70
2018-10-12T21:48:53.177Z,28.87
2018-10-12T21:51:20.584Z,29.97
2018-10-12T21:53:47.945Z,28.90
2018-10-12T21:56:15.281Z,28.47
2018-10-12T21:58:42.676Z,28.53
2018-10-12T22:01:10.089Z,29.53
2018-10-12T22:03:37.670Z,27.77
2018-10-12T22:06:05.421Z,29.30
2018-10-12T22:08:38.172Z,27.87
2018-10-12T22:11:06.220Z,27.60
2018-10-12T22:13:33.844Z,27.67
2018-10-12T22:16:01.408Z,27.90
2018-10-12T22:18:29.004Z,26.67
2018-10-12T22:20:56.602Z,26.20
2018-10-12T22:23:23.973Z,25.40
2018-10-12T22:25:51.444Z,26.10
2018-10-12T22:28:18.762Z,25.70
2018-10-12T22:30:46.251Z,27.30
2018-10-12T22:33:13.690Z,27.13
2018-10-12T22:35:41.389Z,28.23
2018-10-12T22:38:08.787Z,26.90
2018-10-12T22:40:36.184Z,26.30
2018-10-12T22:43:03.551Z,27.37
2018-10-12T22:45:30.899Z,27.47
2018-10-12T22:47:58.384Z,26.83
2018-10-12T22:50:25.791Z,26.27
2018-10-12T22:52:53.313Z,25.83
2018-10-12T22:55:20.685Z,26.00
2018-10-12T22:57:48.037Z,25.43
2018-10-12T23:00:15.637Z,25.17
2018-10-12T23:02:43.029Z,27.13
2018-10-12T23:05:10.411Z,24.83
2018-10-12T23:07:37.808Z,25.07
2018-10-12T23:10:05.529Z,26.03
2018-10-12T23:12:32.909Z,26.63
2018-10-12T23:15:00.287Z,25.97
2018-10-12T23:17:27.716Z,25.10
2018-10-12T23:19:55.109Z,26.90
2018-10-12T23:22:22.462Z,25.13
2018-10-12T23:24:49.889Z,28.07
2018-10-12T23:27:17.257Z,26.23
2018-10-12T23:29:44.618Z,27.00
2018-10-12T23:32:12.845Z,25.13
2018-10-12T23:34:40.200Z,26.27
2018-10-12T23:37:07.553Z,26.27
2018-10-12T23:39:34.953Z,27.57
2018-10-12T23:42:02.364Z,27.83
2018-10-12T23:44:29.760Z,26.70
2018-10-12T23:46:57.144Z,26.23
2018-10-12T23:49:24.505Z,25.97
2018-10-12T23:51:51.999Z,27.47
2018-10-12T23:54:19.376Z,28.07
2018-10-12T23:56:46.816Z,27.67
2018-10-12T23:59:14.157Z,25.80
